sensor_id;sensor_type;location;lat;lon;timestamp;P1;durP1;ratioP1;P2;durP2;ratioP2
11439;SDS011;5776;51.814;4.510;2022-07-31T00:01:49;6.60;;;3.33;;
11439;SDS011;5776;51.814;4.510;2022-07-31T00:04:16;6.50;;;3.05;;
11439;SDS011;5776;51.814;4.510;2022-07-31T00:06:42;4.88;;;2.50;;
11439;SDS011;5776;51.814;4.510;2022-07-31T00:09:09;3.90;;;2.22;;
11439;SDS011;5776;51.814;4.510;2022-07-31T00:11:35;3.45;;;2.35;;
11439;SDS011;5776;51.814;4.510;2022-07-31T00:14:01;4.75;;;1.90;;
11439;SDS011;5776;51.814;4.510;2022-07-31T00:16:27;4.88;;;1.88;;
11439;SDS011;5776;51.814;4.510;2022-07-31T00:18:53;5.55;;;2.20;;
11439;SDS011;5776;51.814;4.510;2022-07-31T00:21:19;6.20;;;2.70;;
11439;SDS011;5776;51.814;4.510;2022-07-31T00:23:45;4.65;;;3.17;;
11439;SDS011;5776;51.814;4.510;2022-07-31T00:26:11;8.48;;;3.22;;
11439;SDS011;5776;51.814;4.510;2022-07-31T00:28:37;6.03;;;3.17;;
11439;SDS011;5776;51.814;4.510;2022-07-31T00:31:02;5.47;;;3.65;;
11439;SDS011;5776;51.814;4.510;2022-07-31T00:33:28;8.75;;;4.15;;
11439;SDS011;5776;51.814;4.510;2022-07-31T00:35:54;5.55;;;3.22;;
11439;SDS011;5776;51.814;4.510;2022-07-31T00:38:20;7.32;;;2.92;;
11439;SDS011;5776;51.814;4.510;2022-07-31T00:40:47;5.07;;;2.70;;
11439;SDS011;5776;51.814;4.510;2022-07-31T00:43:13;3.97;;;1.73;;
11439;SDS011;5776;51.814;4.510;2022-07-31T00:45:40;6.55;;;2.75;;
11439;SDS011;5776;51.814;4.510;2022-07-31T00:48:07;4.72;;;1.85;;
11439;SDS011;5776;51.814;4.510;2022-07-31T00:50:33;3.22;;;1.77;;
11439;SDS011;5776;51.814;4.510;2022-07-31T00:52:59;5.13;;;2.10;;
11439;SDS011;5776;51.814;4.510;2022-07-31T00:55:25;4.60;;;2.25;;
11439;SDS011;5776;51.814;4.510;2022-07-31T00:57:51;9.57;;;3.50;;
11439;SDS011;5776;51.814;4.510;2022-07-31T01:00:17;4.95;;;3.00;;
11439;SDS011;5776;51.814;4.510;2022-07-31T01:02:43;5.82;;;2.22;;
11439;SDS011;5776;51.814;4.510;2022-07-31T01:05:09;5.00;;;2.35;;
11439;SDS011;5776;51.814;4.510;2022-07-31T01:07:35;3.38;;;1.83;;
11439;SDS011;5776;51.814;4.510;2022-07-31T01:10:02;5.28;;;2.10;;
11439;SDS011;5776;51.814;4.510;2022-07-31T01:12:34;5.60;;;2.95;;
11439;SDS011;5776;51.814;4.510;2022-07-31T01:15:05;8.90;;;3.60;;
11439;SDS011;5776;51.814;4.510;2022-07-31T01:17:33;3.70;;;2.15;;
11439;SDS011;5776;51.814;4.510;2022-07-31T01:20:03;7.18;;;3.53;;
11439;SDS011;5776;51.814;4.510;2022-07-31T01:25:26;4.55;;;2.25;;
11439;SDS011;5776;51.814;4.510;2022-07-31T01:30:44;7.07;;;2.88;;
11439;SDS011;5776;51.814;4.510;2022-07-31T01:33:14;6.63;;;2.90;;
11439;SDS011;5776;51.814;4.510;2022-07-31T01:35:45;5.55;;;3.22;;
11439;SDS011;5776;51.814;4.510;2022-07-31T01:38:18;6.82;;;3.70;;
11439;SDS011;5776;51.814;4.510;2022-07-31T01:40:58;11.20;;;3.55;;
11439;SDS011;5776;51.814;4.510;2022-07-31T01:43:31;6.43;;;3.83;;
11439;SDS011;5776;51.814;4.510;2022-07-31T01:45:59;7.55;;;3.65;;
11439;SDS011;5776;51.814;4.510;2022-07-31T01:48:31;6.03;;;3.45;;
11439;SDS011;5776;51.814;4.510;2022-07-31T01:50:58;10.63;;;3.65;;
11439;SDS011;5776;51.814;4.510;2022-07-31T01:53:27;9.75;;;3.92;;
11439;SDS011;5776;51.814;4.510;2022-07-31T01:55:58;6.55;;;3.40;;
11439;SDS011;5776;51.814;4.510;2022-07-31T01:58:25;7.70;;;3.72;;
11439;SDS011;5776;51.814;4.510;2022-07-31T02:00:55;4.88;;;3.17;;
11439;SDS011;5776;51.814;4.510;2022-07-31T02:03:24;6.15;;;2.85;;
11439;SDS011;5776;51.814;4.510;2022-07-31T02:05:51;6.20;;;3.30;;
11439;SDS011;5776;51.814;4.510;2022-07-31T02:08:18;4.93;;;2.53;;
11439;SDS011;5776;51.814;4.510;2022-07-31T02:10:46;3.30;;;1.55;;
11439;SDS011;5776;51.814;4.510;2022-07-31T02:13:12;4.32;;;1.95;;
11439;SDS011;5776;51.814;4.510;2022-07-31T02:15:40;2.97;;;1.10;;
11439;SDS011;5776;51.814;4.510;2022-07-31T02:18:08;3.25;;;2.13;;
11439;SDS011;5776;51.814;4.510;2022-07-31T02:20:35;4.90;;;3.20;;
11439;SDS011;5776;51.814;4.510;2022-07-31T02:23:03;5.53;;;3.28;;
11439;SDS011;5776;51.814;4.510;2022-07-31T02:25:29;6.43;;;3.20;;
11439;SDS011;5776;51.814;4.510;2022-07-31T02:27:57;6.80;;;3.63;;
11439;SDS011;5776;51.814;4.510;2022-07-31T02:30:27;8.93;;;3.30;;
11439;SDS011;5776;51.814;4.510;2022-07-31T02:32:55;5.30;;;2.95;;
11439;SDS011;5776;51.814;4.510;2022-07-31T02:35:21;4.85;;;3.00;;
11439;SDS011;5776;51.814;4.510;2022-07-31T02:37:49;4.53;;;2.67;;
11439;SDS011;5776;51.814;4.510;2022-07-31T02:40:17;4.82;;;2.30;;
11439;SDS011;5776;51.814;4.510;2022-07-31T02:42:44;2.95;;;1.77;;
11439;SDS011;5776;51.814;4.510;2022-07-31T02:45:11;3.20;;;1.63;;
11439;SDS011;5776;51.814;4.510;2022-07-31T02:47:38;3.80;;;2.00;;
11439;SDS011;5776;51.814;4.510;2022-07-31T02:50:05;3.30;;;1.88;;
11439;SDS011;5776;51.814;4.510;2022-07-31T02:52:32;4.03;;;2.42;;
11439;SDS011;5776;51.814;4.510;2022-07-31T02:54:58;4.53;;;2.42;;
11439;SDS011;5776;51.814;4.510;2022-07-31T02:57:26;7.25;;;2.50;;
11439;SDS011;5776;51.814;4.510;2022-07-31T02:59:52;7.28;;;2.78;;
11439;SDS011;5776;51.814;4.510;2022-07-31T03:02:18;6.15;;;2.47;;
11439;SDS011;5776;51.814;4.510;2022-07-31T03:04:44;4.32;;;2.30;;
11439;SDS011;5776;51.814;4.510;2022-07-31T03:07:10;3.10;;;2.78;;
11439;SDS011;5776;51.814;4.510;2022-07-31T03:09:35;4.28;;;2.80;;
11439;SDS011;5776;51.814;4.510;2022-07-31T03:12:02;4.50;;;3.05;;
11439;SDS011;5776;51.814;4.510;2022-07-31T03:14:28;11.00;;;3.65;;
11439;SDS011;5776;51.814;4.510;2022-07-31T03:16:55;6.15;;;3.08;;
11439;SDS011;5776;51.814;4.510;2022-07-31T03:19:22;6.50;;;3.80;;
11439;SDS011;5776;51.814;4.510;2022-07-31T03:21:50;4.63;;;3.50;;
11439;SDS011;5776;51.814;4.510;2022-07-31T03:24:16;6.45;;;4.07;;
11439;SDS011;5776;51.814;4.510;2022-07-31T03:26:43;7.45;;;3.90;;
11439;SDS011;5776;51.814;4.510;2022-07-31T03:29:09;5.40;;;3.38;;
11439;SDS011;5776;51.814;4.510;2022-07-31T03:31:35;8.68;;;4.50;;
11439;SDS011;5776;51.814;4.510;2022-07-31T03:34:01;8.68;;;4.72;;
11439;SDS011;5776;51.814;4.510;2022-07-31T03:36:27;6.15;;;4.25;;
11439;SDS011;5776;51.814;4.510;2022-07-31T03:38:53;5.20;;;3.88;;
11439;SDS011;5776;51.814;4.510;2022-07-31T03:41:19;8.43;;;4.70;;
11439;SDS011;5776;51.814;4.510;2022-07-31T03:43:45;7.57;;;4.25;;
11439;SDS011;5776;51.814;4.510;2022-07-31T03:46:12;6.18;;;3.90;;
11439;SDS011;5776;51.814;4.510;2022-07-31T03:48:41;8.43;;;4.68;;
11439;SDS011;5776;51.814;4.510;2022-07-31T03:51:07;8.02;;;5.13;;
11439;SDS011;5776;51.814;4.510;2022-07-31T03:53:34;9.07;;;5.22;;
11439;SDS011;5776;51.814;4.510;2022-07-31T03:56:00;9.18;;;5.07;;
11439;SDS011;5776;51.814;4.510;2022-07-31T03:58:29;8.95;;;5.30;;
11439;SDS011;5776;51.814;4.510;2022-07-31T04:00:55;14.30;;;7.00;;
11439;SDS011;5776;51.814;4.510;2022-07-31T04:03:21;10.07;;;5.97;;
11439;SDS011;5776;51.814;4.510;2022-07-31T04:05:47;12.65;;;6.32;;
11439;SDS011;5776;51.814;4.510;2022-07-31T04:08:13;9.90;;;6.30;;
11439;SDS011;5776;51.814;4.510;2022-07-31T04:10:40;12.60;;;6.68;;
11439;SDS011;5776;51.814;4.510;2022-07-31T04:13:06;13.70;;;7.20;;
11439;SDS011;5776;51.814;4.510;2022-07-31T04:15:32;12.82;;;7.20;;
11439;SDS011;5776;51.814;4.510;2022-07-31T04:17:58;13.88;;;8.10;;
11439;SDS011;5776;51.814;4.510;2022-07-31T04:20:24;13.50;;;7.63;;
11439;SDS011;5776;51.814;4.510;2022-07-31T04:22:50;11.85;;;7.22;;
11439;SDS011;5776;51.814;4.510;2022-07-31T04:25:16;15.55;;;8.55;;
11439;SDS011;5776;51.814;4.510;2022-07-31T04:27:42;16.85;;;8.95;;
11439;SDS011;5776;51.814;4.510;2022-07-31T04:30:08;16.08;;;8.43;;
11439;SDS011;5776;51.814;4.510;2022-07-31T04:32:34;16.38;;;7.82;;
11439;SDS011;5776;51.814;4.510;2022-07-31T04:35:01;18.48;;;9.05;;
11439;SDS011;5776;51.814;4.510;2022-07-31T04:37:28;16.15;;;8.27;;
11439;SDS011;5776;51.814;4.510;2022-07-31T04:39:54;17.50;;;10.00;;
11439;SDS011;5776;51.814;4.510;2022-07-31T04:42:20;18.85;;;9.52;;
11439;SDS011;5776;51.814;4.510;2022-07-31T04:44:46;19.45;;;9.10;;
11439;SDS011;5776;51.814;4.510;2022-07-31T04:47:12;20.17;;;9.35;;
11439;SDS011;5776;51.814;4.510;2022-07-31T04:49:38;12.20;;;8.88;;
11439;SDS011;5776;51.814;4.510;2022-07-31T04:52:04;19.63;;;9.68;;
11439;SDS011;5776;51.814;4.510;2022-07-31T04:54:31;19.58;;;9.98;;
11439;SDS011;5776;51.814;4.510;2022-07-31T04:56:56;19.88;;;9.48;;
11439;SDS011;5776;51.814;4.510;2022-07-31T04:59:22;18.30;;;10.82;;
11439;SDS011;5776;51.814;4.510;2022-07-31T05:01:49;20.48;;;10.88;;
11439;SDS011;5776;51.814;4.510;2022-07-31T05:04:16;23.23;;;11.82;;
11439;SDS011;5776;51.814;4.510;2022-07-31T05:06:44;21.65;;;12.52;;
11439;SDS011;5776;51.814;4.510;2022-07-31T05:09:13;20.70;;;12.25;;
11439;SDS011;5776;51.814;4.510;2022-07-31T05:11:40;21.77;;;12.52;;
11439;SDS011;5776;51.814;4.510;2022-07-31T05:14:08;19.75;;;11.75;;
11439;SDS011;5776;51.814;4.510;2022-07-31T05:16:35;26.27;;;12.60;;
11439;SDS011;5776;51.814;4.510;2022-07-31T05:19:02;20.73;;;11.50;;
11439;SDS011;5776;51.814;4.510;2022-07-31T05:21:29;27.88;;;13.30;;
11439;SDS011;5776;51.814;4.510;2022-07-31T05:23:55;25.92;;;13.63;;
11439;SDS011;5776;51.814;4.510;2022-07-31T05:26:22;24.55;;;12.65;;
11439;SDS011;5776;51.814;4.510;2022-07-31T05:28:49;24.98;;;11.85;;
11439;SDS011;5776;51.814;4.510;2022-07-31T05:31:17;19.65;;;12.02;;
11439;SDS011;5776;51.814;4.510;2022-07-31T05:33:45;24.13;;;13.45;;
11439;SDS011;5776;51.814;4.510;2022-07-31T05:36:12;22.77;;;12.90;;
11439;SDS011;5776;51.814;4.510;2022-07-31T05:38:38;27.20;;;13.63;;
11439;SDS011;5776;51.814;4.510;2022-07-31T05:41:04;26.48;;;12.80;;
11439;SDS011;5776;51.814;4.510;2022-07-31T05:43:31;27.23;;;14.23;;
11439;SDS011;5776;51.814;4.510;2022-07-31T05:45:57;23.90;;;12.55;;
11439;SDS011;5776;51.814;4.510;2022-07-31T05:48:23;29.17;;;14.10;;
11439;SDS011;5776;51.814;4.510;2022-07-31T05:50:49;26.67;;;13.48;;
11439;SDS011;5776;51.814;4.510;2022-07-31T05:53:16;32.25;;;15.25;;
11439;SDS011;5776;51.814;4.510;2022-07-31T05:55:43;28.63;;;14.18;;
11439;SDS011;5776;51.814;4.510;2022-07-31T05:58:10;24.92;;;14.30;;
11439;SDS011;5776;51.814;4.510;2022-07-31T06:00:37;28.67;;;14.20;;
11439;SDS011;5776;51.814;4.510;2022-07-31T06:03:04;28.52;;;16.00;;
11439;SDS011;5776;51.814;4.510;2022-07-31T06:05:30;29.85;;;14.93;;
11439;SDS011;5776;51.814;4.510;2022-07-31T06:07:57;28.27;;;15.93;;
11439;SDS011;5776;51.814;4.510;2022-07-31T06:10:25;27.73;;;14.95;;
11439;SDS011;5776;51.814;4.510;2022-07-31T06:12:52;30.45;;;15.95;;
11439;SDS011;5776;51.814;4.510;2022-07-31T06:15:19;31.65;;;16.45;;
11439;SDS011;5776;51.814;4.510;2022-07-31T06:17:45;27.00;;;15.30;;
11439;SDS011;5776;51.814;4.510;2022-07-31T06:20:11;35.03;;;18.00;;
11439;SDS011;5776;51.814;4.510;2022-07-31T06:22:38;34.92;;;17.90;;
11439;SDS011;5776;51.814;4.510;2022-07-31T06:25:06;36.83;;;17.92;;
11439;SDS011;5776;51.814;4.510;2022-07-31T06:27:33;34.47;;;17.95;;
11439;SDS011;5776;51.814;4.510;2022-07-31T06:30:00;33.65;;;18.38;;
11439;SDS011;5776;51.814;4.510;2022-07-31T06:32:26;33.47;;;18.83;;
11439;SDS011;5776;51.814;4.510;2022-07-31T06:34:52;30.95;;;18.05;;
11439;SDS011;5776;51.814;4.510;2022-07-31T06:37:18;33.03;;;18.52;;
11439;SDS011;5776;51.814;4.510;2022-07-31T06:39:44;32.78;;;17.63;;
11439;SDS011;5776;51.814;4.510;2022-07-31T06:42:10;33.33;;;18.35;;
11439;SDS011;5776;51.814;4.510;2022-07-31T06:44:42;29.95;;;17.10;;
11439;SDS011;5776;51.814;4.510;2022-07-31T06:47:08;28.85;;;17.50;;
11439;SDS011;5776;51.814;4.510;2022-07-31T06:49:34;35.22;;;17.45;;
11439;SDS011;5776;51.814;4.510;2022-07-31T06:52:00;31.77;;;17.70;;
11439;SDS011;5776;51.814;4.510;2022-07-31T06:54:26;33.35;;;17.60;;
11439;SDS011;5776;51.814;4.510;2022-07-31T06:56:52;29.00;;;16.58;;
11439;SDS011;5776;51.814;4.510;2022-07-31T06:59:18;30.83;;;17.35;;
11439;SDS011;5776;51.814;4.510;2022-07-31T07:01:44;27.95;;;17.45;;
11439;SDS011;5776;51.814;4.510;2022-07-31T07:04:10;29.88;;;17.02;;
11439;SDS011;5776;51.814;4.510;2022-07-31T07:06:36;29.45;;;17.50;;
11439;SDS011;5776;51.814;4.510;2022-07-31T07:09:02;31.15;;;16.88;;
11439;SDS011;5776;51.814;4.510;2022-07-31T07:11:28;28.08;;;16.67;;
11439;SDS011;5776;51.814;4.510;2022-07-31T07:13:54;30.92;;;17.08;;
11439;SDS011;5776;51.814;4.510;2022-07-31T07:16:20;29.55;;;16.67;;
11439;SDS011;5776;51.814;4.510;2022-07-31T07:18:46;26.45;;;15.82;;
11439;SDS011;5776;51.814;4.510;2022-07-31T07:21:12;24.27;;;15.55;;
11439;SDS011;5776;51.814;4.510;2022-07-31T07:23:38;30.40;;;16.95;;
11439;SDS011;5776;51.814;4.510;2022-07-31T07:26:04;24.27;;;16.88;;
11439;SDS011;5776;51.814;4.510;2022-07-31T07:28:30;23.80;;;16.40;;
11439;SDS011;5776;51.814;4.510;2022-07-31T07:30:56;24.45;;;16.50;;
11439;SDS011;5776;51.814;4.510;2022-07-31T07:33:23;23.38;;;16.15;;
11439;SDS011;5776;51.814;4.510;2022-07-31T07:35:48;27.27;;;16.73;;
11439;SDS011;5776;51.814;4.510;2022-07-31T07:38:14;24.63;;;16.55;;
11439;SDS011;5776;51.814;4.510;2022-07-31T07:40:40;26.98;;;16.27;;
11439;SDS011;5776;51.814;4.510;2022-07-31T07:43:06;29.40;;;15.95;;
11439;SDS011;5776;51.814;4.510;2022-07-31T07:45:32;27.42;;;16.10;;
11439;SDS011;5776;51.814;4.510;2022-07-31T07:47:58;23.38;;;15.50;;
11439;SDS011;5776;51.814;4.510;2022-07-31T07:50:24;24.63;;;15.77;;
11439;SDS011;5776;51.814;4.510;2022-07-31T07:52:50;21.65;;;15.00;;
11439;SDS011;5776;51.814;4.510;2022-07-31T07:55:16;21.85;;;13.45;;
11439;SDS011;5776;51.814;4.510;2022-07-31T07:57:43;23.77;;;14.13;;
11439;SDS011;5776;51.814;4.510;2022-07-31T08:00:10;22.13;;;14.70;;
11439;SDS011;5776;51.814;4.510;2022-07-31T08:02:37;19.42;;;12.88;;
11439;SDS011;5776;51.814;4.510;2022-07-31T08:05:03;18.70;;;13.00;;
11439;SDS011;5776;51.814;4.510;2022-07-31T08:07:32;19.90;;;11.23;;
11439;SDS011;5776;51.814;4.510;2022-07-31T08:10:00;22.15;;;12.75;;
11439;SDS011;5776;51.814;4.510;2022-07-31T08:12:27;23.23;;;12.68;;
11439;SDS011;5776;51.814;4.510;2022-07-31T08:14:53;21.20;;;11.80;;
11439;SDS011;5776;51.814;4.510;2022-07-31T08:17:19;18.55;;;11.60;;
11439;SDS011;5776;51.814;4.510;2022-07-31T08:19:45;22.08;;;11.75;;
11439;SDS011;5776;51.814;4.510;2022-07-31T08:22:11;17.20;;;11.10;;
11439;SDS011;5776;51.814;4.510;2022-07-31T08:24:38;21.90;;;11.45;;
11439;SDS011;5776;51.814;4.510;2022-07-31T08:27:04;15.13;;;10.48;;
11439;SDS011;5776;51.814;4.510;2022-07-31T08:29:49;13.75;;;10.35;;
11439;SDS011;5776;51.814;4.510;2022-07-31T08:32:19;19.35;;;10.77;;
11439;SDS011;5776;51.814;4.510;2022-07-31T08:34:45;18.92;;;11.93;;
11439;SDS011;5776;51.814;4.510;2022-07-31T08:37:11;20.63;;;12.57;;
11439;SDS011;5776;51.814;4.510;2022-07-31T08:39:38;16.23;;;11.13;;
11439;SDS011;5776;51.814;4.510;2022-07-31T08:42:05;18.13;;;11.45;;
11439;SDS011;5776;51.814;4.510;2022-07-31T08:44:36;21.63;;;11.82;;
11439;SDS011;5776;51.814;4.510;2022-07-31T08:47:04;20.38;;;12.13;;
11439;SDS011;5776;51.814;4.510;2022-07-31T08:49:32;18.45;;;12.85;;
11439;SDS011;5776;51.814;4.510;2022-07-31T08:52:04;21.75;;;15.00;;
11439;SDS011;5776;51.814;4.510;2022-07-31T08:54:31;25.52;;;15.70;;
11439;SDS011;5776;51.814;4.510;2022-07-31T08:56:59;19.13;;;15.10;;
11439;SDS011;5776;51.814;4.510;2022-07-31T08:59:26;22.88;;;16.30;;
11439;SDS011;5776;51.814;4.510;2022-07-31T09:01:52;25.27;;;17.67;;
11439;SDS011;5776;51.814;4.510;2022-07-31T09:04:21;26.50;;;16.58;;
11439;SDS011;5776;51.814;4.510;2022-07-31T09:06:48;22.33;;;16.30;;
11439;SDS011;5776;51.814;4.510;2022-07-31T09:09:15;22.05;;;16.70;;
11439;SDS011;5776;51.814;4.510;2022-07-31T09:11:46;21.15;;;15.05;;
11439;SDS011;5776;51.814;4.510;2022-07-31T09:16:50;18.90;;;13.85;;
11439;SDS011;5776;51.814;4.510;2022-07-31T09:19:19;23.95;;;14.43;;
11439;SDS011;5776;51.814;4.510;2022-07-31T09:21:47;18.02;;;12.85;;
11439;SDS011;5776;51.814;4.510;2022-07-31T09:24:24;19.40;;;12.00;;
11439;SDS011;5776;51.814;4.510;2022-07-31T09:26:52;21.25;;;12.07;;
11439;SDS011;5776;51.814;4.510;2022-07-31T09:29:36;17.80;;;11.77;;
11439;SDS011;5776;51.814;4.510;2022-07-31T09:32:10;15.15;;;10.82;;
11439;SDS011;5776;51.814;4.510;2022-07-31T09:34:39;16.88;;;10.68;;
11439;SDS011;5776;51.814;4.510;2022-07-31T09:37:17;13.32;;;9.25;;
11439;SDS011;5776;51.814;4.510;2022-07-31T09:39:50;16.15;;;9.70;;
11439;SDS011;5776;51.814;4.510;2022-07-31T09:42:17;15.90;;;10.02;;
11439;SDS011;5776;51.814;4.510;2022-07-31T09:44:45;12.90;;;8.65;;
11439;SDS011;5776;51.814;4.510;2022-07-31T09:47:22;18.60;;;11.10;;
11439;SDS011;5776;51.814;4.510;2022-07-31T09:49:56;13.95;;;10.00;;
11439;SDS011;5776;51.814;4.510;2022-07-31T09:52:24;13.02;;;9.20;;
11439;SDS011;5776;51.814;4.510;2022-07-31T09:55:09;13.73;;;9.63;;
11439;SDS011;5776;51.814;4.510;2022-07-31T09:57:50;15.30;;;8.77;;
11439;SDS011;5776;51.814;4.510;2022-07-31T10:00:18;14.38;;;8.20;;
11439;SDS011;5776;51.814;4.510;2022-07-31T10:02:44;11.93;;;7.57;;
11439;SDS011;5776;51.814;4.510;2022-07-31T10:05:12;9.63;;;7.20;;
11439;SDS011;5776;51.814;4.510;2022-07-31T10:07:39;14.65;;;6.70;;
11439;SDS011;5776;51.814;4.510;2022-07-31T10:10:07;13.73;;;7.30;;
11439;SDS011;5776;51.814;4.510;2022-07-31T10:12:34;13.82;;;7.30;;
11439;SDS011;5776;51.814;4.510;2022-07-31T10:15:10;9.02;;;5.88;;
11439;SDS011;5776;51.814;4.510;2022-07-31T10:17:39;11.75;;;6.65;;
11439;SDS011;5776;51.814;4.510;2022-07-31T10:20:10;12.85;;;5.82;;
11439;SDS011;5776;51.814;4.510;2022-07-31T10:22:42;11.05;;;6.60;;
11439;SDS011;5776;51.814;4.510;2022-07-31T10:25:12;13.82;;;6.43;;
11439;SDS011;5776;51.814;4.510;2022-07-31T10:27:44;12.50;;;5.60;;
11439;SDS011;5776;51.814;4.510;2022-07-31T10:30:10;8.98;;;5.22;;
11439;SDS011;5776;51.814;4.510;2022-07-31T10:32:36;12.52;;;6.97;;
11439;SDS011;5776;51.814;4.510;2022-07-31T10:35:03;12.07;;;6.68;;
11439;SDS011;5776;51.814;4.510;2022-07-31T10:37:57;15.85;;;7.03;;
11439;SDS011;5776;51.814;4.510;2022-07-31T10:43:35;9.95;;;5.45;;
11439;SDS011;5776;51.814;4.510;2022-07-31T10:46:08;9.57;;;6.47;;
11439;SDS011;5776;51.814;4.510;2022-07-31T10:48:34;10.35;;;5.20;;
11439;SDS011;5776;51.814;4.510;2022-07-31T10:51:01;10.93;;;6.05;;
11439;SDS011;5776;51.814;4.510;2022-07-31T10:53:29;9.25;;;5.60;;
11439;SDS011;5776;51.814;4.510;2022-07-31T10:56:02;12.25;;;6.13;;
11439;SDS011;5776;51.814;4.510;2022-07-31T10:58:29;12.70;;;6.47;;
11439;SDS011;5776;51.814;4.510;2022-07-31T11:01:07;10.10;;;5.53;;
11439;SDS011;5776;51.814;4.510;2022-07-31T11:03:38;10.43;;;5.03;;
11439;SDS011;5776;51.814;4.510;2022-07-31T11:06:05;10.35;;;5.50;;
11439;SDS011;5776;51.814;4.510;2022-07-31T11:08:41;12.15;;;6.30;;
11439;SDS011;5776;51.814;4.510;2022-07-31T11:11:08;10.30;;;5.60;;
11439;SDS011;5776;51.814;4.510;2022-07-31T11:16:10;10.98;;;6.50;;
11439;SDS011;5776;51.814;4.510;2022-07-31T11:18:36;8.40;;;5.38;;
11439;SDS011;5776;51.814;4.510;2022-07-31T11:21:03;11.63;;;6.60;;
11439;SDS011;5776;51.814;4.510;2022-07-31T11:23:32;12.90;;;7.65;;
11439;SDS011;5776;51.814;4.510;2022-07-31T11:26:04;11.35;;;7.22;;
11439;SDS011;5776;51.814;4.510;2022-07-31T11:28:32;14.20;;;7.90;;
11439;SDS011;5776;51.814;4.510;2022-07-31T11:31:00;13.05;;;7.65;;
11439;SDS011;5776;51.814;4.510;2022-07-31T11:33:40;12.23;;;7.82;;
11439;SDS011;5776;51.814;4.510;2022-07-31T11:38:34;13.15;;;8.32;;
11439;SDS011;5776;51.814;4.510;2022-07-31T11:41:05;13.48;;;7.82;;
11439;SDS011;5776;51.814;4.510;2022-07-31T11:43:31;14.00;;;7.53;;
11439;SDS011;5776;51.814;4.510;2022-07-31T11:45:59;14.85;;;7.25;;
11439;SDS011;5776;51.814;4.510;2022-07-31T11:48:26;11.93;;;6.63;;
11439;SDS011;5776;51.814;4.510;2022-07-31T11:50:56;10.70;;;5.95;;
11439;SDS011;5776;51.814;4.510;2022-07-31T11:53:22;7.53;;;5.70;;
11439;SDS011;5776;51.814;4.510;2022-07-31T11:55:52;8.15;;;5.53;;
11439;SDS011;5776;51.814;4.510;2022-07-31T11:58:20;11.55;;;5.68;;
11439;SDS011;5776;51.814;4.510;2022-07-31T12:00:49;12.93;;;6.40;;
11439;SDS011;5776;51.814;4.510;2022-07-31T12:03:17;14.68;;;5.82;;
11439;SDS011;5776;51.814;4.510;2022-07-31T12:05:46;11.23;;;5.22;;
11439;SDS011;5776;51.814;4.510;2022-07-31T12:08:16;11.38;;;5.90;;
11439;SDS011;5776;51.814;4.510;2022-07-31T12:10:44;9.00;;;4.88;;
11439;SDS011;5776;51.814;4.510;2022-07-31T12:13:14;7.63;;;5.15;;
11439;SDS011;5776;51.814;4.510;2022-07-31T12:18:43;10.20;;;3.42;;
11439;SDS011;5776;51.814;4.510;2022-07-31T12:21:09;6.63;;;3.30;;
11439;SDS011;5776;51.814;4.510;2022-07-31T12:23:43;4.35;;;2.65;;
11439;SDS011;5776;51.814;4.510;2022-07-31T12:26:20;7.80;;;3.05;;
11439;SDS011;5776;51.814;4.510;2022-07-31T12:29:07;6.30;;;2.88;;
11439;SDS011;5776;51.814;4.510;2022-07-31T12:34:26;6.88;;;2.40;;
11439;SDS011;5776;51.814;4.510;2022-07-31T12:37:12;8.75;;;2.60;;
11439;SDS011;5776;51.814;4.510;2022-07-31T12:39:59;5.57;;;2.70;;
11439;SDS011;5776;51.814;4.510;2022-07-31T12:42:25;4.93;;;2.40;;
11439;SDS011;5776;51.814;4.510;2022-07-31T12:44:57;8.48;;;2.97;;
11439;SDS011;5776;51.814;4.510;2022-07-31T12:47:26;4.30;;;2.30;;
11439;SDS011;5776;51.814;4.510;2022-07-31T12:49:54;8.10;;;3.10;;
11439;SDS011;5776;51.814;4.510;2022-07-31T12:52:21;6.35;;;3.28;;
11439;SDS011;5776;51.814;4.510;2022-07-31T12:54:48;6.95;;;3.38;;
11439;SDS011;5776;51.814;4.510;2022-07-31T12:57:17;8.00;;;3.50;;
11439;SDS011;5776;51.814;4.510;2022-07-31T12:59:43;7.55;;;2.90;;
11439;SDS011;5776;51.814;4.510;2022-07-31T13:02:09;8.15;;;3.63;;
11439;SDS011;5776;51.814;4.510;2022-07-31T13:04:35;8.82;;;3.90;;
11439;SDS011;5776;51.814;4.510;2022-07-31T13:07:01;10.38;;;6.05;;
11439;SDS011;5776;51.814;4.510;2022-07-31T13:09:27;12.15;;;6.82;;
11439;SDS011;5776;51.814;4.510;2022-07-31T13:11:53;11.15;;;5.82;;
11439;SDS011;5776;51.814;4.510;2022-07-31T13:14:20;11.68;;;6.03;;
11439;SDS011;5776;51.814;4.510;2022-07-31T13:16:48;10.00;;;5.25;;
11439;SDS011;5776;51.814;4.510;2022-07-31T13:19:15;8.35;;;5.68;;
11439;SDS011;5776;51.814;4.510;2022-07-31T13:21:41;8.63;;;5.22;;
11439;SDS011;5776;51.814;4.510;2022-07-31T13:24:08;12.18;;;5.30;;
11439;SDS011;5776;51.814;4.510;2022-07-31T13:26:34;9.55;;;5.28;;
11439;SDS011;5776;51.814;4.510;2022-07-31T13:29:01;9.07;;;5.13;;
11439;SDS011;5776;51.814;4.510;2022-07-31T13:31:28;8.02;;;5.00;;
11439;SDS011;5776;51.814;4.510;2022-07-31T13:33:54;11.18;;;5.75;;
11439;SDS011;5776;51.814;4.510;2022-07-31T13:36:21;11.80;;;6.00;;
11439;SDS011;5776;51.814;4.510;2022-07-31T13:38:55;12.02;;;6.00;;
11439;SDS011;5776;51.814;4.510;2022-07-31T13:41:21;8.43;;;4.88;;
11439;SDS011;5776;51.814;4.510;2022-07-31T13:43:53;10.88;;;4.95;;
11439;SDS011;5776;51.814;4.510;2022-07-31T13:46:20;7.35;;;4.82;;
11439;SDS011;5776;51.814;4.510;2022-07-31T13:48:49;6.63;;;4.57;;
11439;SDS011;5776;51.814;4.510;2022-07-31T13:51:19;6.47;;;4.32;;
11439;SDS011;5776;51.814;4.510;2022-07-31T13:53:45;7.65;;;4.53;;
11439;SDS011;5776;51.814;4.510;2022-07-31T13:56:16;6.43;;;4.03;;
11439;SDS011;5776;51.814;4.510;2022-07-31T13:58:43;9.88;;;4.95;;
11439;SDS011;5776;51.814;4.510;2022-07-31T14:01:10;12.02;;;4.85;;
11439;SDS011;5776;51.814;4.510;2022-07-31T14:03:36;10.68;;;4.70;;
11439;SDS011;5776;51.814;4.510;2022-07-31T14:06:02;13.77;;;5.20;;
11439;SDS011;5776;51.814;4.510;2022-07-31T14:08:28;13.98;;;6.22;;
11439;SDS011;5776;51.814;4.510;2022-07-31T14:10:54;8.70;;;4.97;;
11439;SDS011;5776;51.814;4.510;2022-07-31T14:13:23;10.73;;;5.25;;
11439;SDS011;5776;51.814;4.510;2022-07-31T14:15:49;13.70;;;5.43;;
11439;SDS011;5776;51.814;4.510;2022-07-31T14:18:15;11.73;;;5.68;;
11439;SDS011;5776;51.814;4.510;2022-07-31T14:20:41;16.33;;;6.05;;
11439;SDS011;5776;51.814;4.510;2022-07-31T14:23:07;12.80;;;5.70;;
11439;SDS011;5776;51.814;4.510;2022-07-31T14:25:37;14.68;;;6.68;;
11439;SDS011;5776;51.814;4.510;2022-07-31T14:28:05;13.43;;;6.30;;
11439;SDS011;5776;51.814;4.510;2022-07-31T14:30:32;16.17;;;7.07;;
11439;SDS011;5776;51.814;4.510;2022-07-31T14:33:03;14.80;;;6.75;;
11439;SDS011;5776;51.814;4.510;2022-07-31T14:35:29;12.07;;;6.65;;
11439;SDS011;5776;51.814;4.510;2022-07-31T14:37:58;14.32;;;7.45;;
11439;SDS011;5776;51.814;4.510;2022-07-31T14:40:24;13.13;;;6.40;;
11439;SDS011;5776;51.814;4.510;2022-07-31T14:42:52;15.35;;;7.95;;
11439;SDS011;5776;51.814;4.510;2022-07-31T14:45:17;15.38;;;7.53;;
11439;SDS011;5776;51.814;4.510;2022-07-31T14:47:45;16.08;;;7.70;;
11439;SDS011;5776;51.814;4.510;2022-07-31T14:50:14;14.02;;;6.93;;
11439;SDS011;5776;51.814;4.510;2022-07-31T14:52:40;14.05;;;7.65;;
11439;SDS011;5776;51.814;4.510;2022-07-31T14:55:07;11.90;;;7.57;;
11439;SDS011;5776;51.814;4.510;2022-07-31T14:57:33;14.32;;;7.57;;
11439;SDS011;5776;51.814;4.510;2022-07-31T14:59:59;10.77;;;5.03;;
11439;SDS011;5776;51.814;4.510;2022-07-31T15:02:25;10.95;;;4.47;;
11439;SDS011;5776;51.814;4.510;2022-07-31T15:04:51;8.98;;;4.85;;
11439;SDS011;5776;51.814;4.510;2022-07-31T15:07:18;9.10;;;4.25;;
11439;SDS011;5776;51.814;4.510;2022-07-31T15:09:45;11.18;;;3.85;;
11439;SDS011;5776;51.814;4.510;2022-07-31T15:12:10;12.63;;;4.63;;
11439;SDS011;5776;51.814;4.510;2022-07-31T15:14:41;10.80;;;4.65;;